createdAt,value
2017-07-09T00:00:37.436Z,5.30
2017-07-09T00:03:05.176Z,5.00
2017-07-09T00:05:32.872Z,4.77
2017-07-09T00:08:00.643Z,4.40
2017-07-09T00:10:28.357Z,4.60
2017-07-09T00:12:56.062Z,4.17
2017-07-09T00:15:23.952Z,4.90
2017-07-09T00:17:51.738Z,5.27
2017-07-09T00:20:19.426Z,4.50
2017-07-09T00:22:47.143Z,4.40
2017-07-09T00:25:14.899Z,6.23
2017-07-09T00:27:42.611Z,4.77
2017-07-09T00:30:10.313Z,4.83
2017-07-09T00:32:38.125Z,4.10
2017-07-09T00:35:05.839Z,5.63
2017-07-09T00:37:38.594Z,5.73
2017-07-09T00:40:06.642Z,4.70
2017-07-09T00:42:35.750Z,5.40
2017-07-09T00:45:03.750Z,5.10
2017-07-09T00:47:31.669Z,5.20
2017-07-09T00:49:59.690Z,6.10
2017-07-09T00:52:28.421Z,4.73
2017-07-09T00:54:57.961Z,5.87
2017-07-09T00:57:26.092Z,4.20
2017-07-09T00:59:54.740Z,5.27
2017-07-09T01:02:23.749Z,4.93
2017-07-09T01:04:51.762Z,4.60
2017-07-09T01:07:19.635Z,4.67
2017-07-09T01:09:47.749Z,4.63
2017-07-09T01:12:17.166Z,5.07
2017-07-09T01:14:47.834Z,5.20
2017-07-09T01:17:18.173Z,4.50
2017-07-09T01:19:46.195Z,4.67
2017-07-09T01:22:14.700Z,4.63
2017-07-09T01:24:44.674Z,4.40
2017-07-09T01:27:13.497Z,4.07
2017-07-09T01:29:41.593Z,4.50
2017-07-09T01:32:11.896Z,3.93
2017-07-09T01:34:41.090Z,4.40
2017-07-09T01:37:09.984Z,4.67
2017-07-09T01:39:38.806Z,4.60
2017-07-09T01:42:07.151Z,4.40
2017-07-09T01:44:35.773Z,4.50
2017-07-09T01:47:03.846Z,4.97
2017-07-09T01:49:31.803Z,4.00
2017-07-09T01:52:00.521Z,4.27
2017-07-09T01:54:28.520Z,4.90
2017-07-09T01:56:56.662Z,4.03
2017-07-09T01:59:26.456Z,4.53
2017-07-09T02:01:54.516Z,4.03
2017-07-09T02:04:25.881Z,5.23
2017-07-09T02:06:53.918Z,4.23
2017-07-09T02:09:21.991Z,4.57
2017-07-09T02:11:50.023Z,4.20
2017-07-09T02:14:21.815Z,4.47
2017-07-09T02:16:52.468Z,4.20
2017-07-09T02:19:24.645Z,4.40
2017-07-09T02:21:52.759Z,4.20
2017-07-09T02:24:20.855Z,4.50
2017-07-09T02:26:48.807Z,4.20
2017-07-09T02:29:17.677Z,4.87
2017-07-09T02:31:46.501Z,5.00
2017-07-09T02:34:14.454Z,4.30
2017-07-09T02:36:42.392Z,4.47
2017-07-09T02:39:11.604Z,4.80
2017-07-09T02:41:39.586Z,3.93
2017-07-09T02:44:07.691Z,4.43
2017-07-09T02:46:37.086Z,4.00
2017-07-09T02:51:39.327Z,3.90
2017-07-09T02:54:07.384Z,4.20
2017-07-09T02:56:35.377Z,5.00
2017-07-09T02:59:04.492Z,4.77
2017-07-09T03:01:32.438Z,4.40
2017-07-09T03:04:00.570Z,4.77
2017-07-09T03:06:30.614Z,4.20
2017-07-09T03:09:01.757Z,5.00
2017-07-09T03:11:29.765Z,4.10
2017-07-09T03:13:57.819Z,4.43
2017-07-09T03:16:25.754Z,3.90
2017-07-09T03:18:53.817Z,4.80
2017-07-09T03:23:56.332Z,5.40
2017-07-09T03:26:25.430Z,4.30
2017-07-09T03:28:55.554Z,4.30
2017-07-09T03:31:23.660Z,4.77
2017-07-09T03:33:52.091Z,4.90
2017-07-09T03:36:20.078Z,4.30
2017-07-09T03:38:48.127Z,4.10
2017-07-09T03:41:16.100Z,3.90
2017-07-09T03:43:44.345Z,4.17
2017-07-09T03:46:12.199Z,3.63
2017-07-09T03:48:41.010Z,4.50
2017-07-09T03:51:09.623Z,3.87
2017-07-09T03:53:37.677Z,4.60
2017-07-09T03:56:06.255Z,4.93
2017-07-09T03:58:34.252Z,3.70
2017-07-09T04:01:03.178Z,4.63
2017-07-09T04:03:31.966Z,4.77
2017-07-09T04:05:59.943Z,3.70
2017-07-09T04:08:28.002Z,4.57
2017-07-09T04:10:56.042Z,4.10
2017-07-09T04:13:24.399Z,4.30
2017-07-09T04:15:57.011Z,4.23
2017-07-09T04:18:25.050Z,4.00
2017-07-09T04:20:53.900Z,4.40
2017-07-09T04:23:22.638Z,4.33
2017-07-09T04:25:50.669Z,4.50
2017-07-09T04:28:19.739Z,5.07
2017-07-09T04:30:47.836Z,3.60
2017-07-09T04:33:16.766Z,3.87
2017-07-09T04:35:44.760Z,3.33
2017-07-09T04:38:13.370Z,3.40
2017-07-09T04:40:41.352Z,4.33
2017-07-09T04:43:09.410Z,4.30
2017-07-09T04:45:40.692Z,4.10
2017-07-09T04:48:09.621Z,4.37
2017-07-09T04:50:40.922Z,3.77
2017-07-09T04:53:09.886Z,4.30
2017-07-09T04:55:38.001Z,3.80
2017-07-09T04:58:07.832Z,4.83
2017-07-09T05:00:36.060Z,3.87
2017-07-09T05:03:04.129Z,4.63
2017-07-09T05:05:32.129Z,3.63
2017-07-09T05:08:03.054Z,4.13
2017-07-09T05:10:33.951Z,4.40
2017-07-09T05:13:02.133Z,4.00
2017-07-09T05:15:30.106Z,4.53
2017-07-09T05:17:58.233Z,3.90
2017-07-09T05:20:27.134Z,4.40
2017-07-09T05:22:56.918Z,3.50
2017-07-09T05:25:26.123Z,4.13
2017-07-09T05:27:54.159Z,4.40
2017-07-09T05:30:22.120Z,4.27
2017-07-09T05:32:50.495Z,3.93
2017-07-09T05:35:18.471Z,4.03
2017-07-09T05:37:46.615Z,3.70
2017-07-09T05:40:14.672Z,3.90
2017-07-09T05:42:42.620Z,4.90
2017-07-09T05:45:10.643Z,4.00
2017-07-09T05:47:39.351Z,3.63
2017-07-09T05:50:07.386Z,3.33
2017-07-09T05:52:35.252Z,3.40
2017-07-09T05:55:03.190Z,3.40
2017-07-09T05:57:31.109Z,3.20
2017-07-09T05:59:59.939Z,3.47
2017-07-09T06:02:28.684Z,3.40
2017-07-09T06:04:56.650Z,3.50
2017-07-09T06:07:26.193Z,3.90
2017-07-09T06:09:57.126Z,3.23
2017-07-09T06:12:25.120Z,3.83
2017-07-09T06:14:53.061Z,4.13
2017-07-09T06:17:21.114Z,3.43
2017-07-09T06:19:50.004Z,4.23
2017-07-09T06:22:19.828Z,4.07
2017-07-09T06:24:47.859Z,3.70
2017-07-09T06:29:52.502Z,3.73
2017-07-09T06:32:22.917Z,3.80
2017-07-09T06:34:51.827Z,3.70
2017-07-09T06:37:19.903Z,3.50
2017-07-09T06:39:48.384Z,4.33
2017-07-09T06:42:16.282Z,3.10
2017-07-09T06:44:44.185Z,3.60
2017-07-09T06:47:12.232Z,3.50
2017-07-09T06:49:40.301Z,3.43
2017-07-09T06:52:09.365Z,4.33
2017-07-09T06:54:37.246Z,3.63
2017-07-09T06:57:05.287Z,3.60
2017-07-09T06:59:33.194Z,4.83
2017-07-09T07:02:01.578Z,3.33
2017-07-09T07:04:30.420Z,3.00
2017-07-09T07:06:58.598Z,3.07
2017-07-09T07:09:27.865Z,3.30
2017-07-09T07:11:55.891Z,3.50
2017-07-09T07:14:23.945Z,3.50
2017-07-09T07:16:52.001Z,3.47
2017-07-09T07:19:19.950Z,2.70
2017-07-09T07:21:49.600Z,3.30
2017-07-09T07:24:19.459Z,2.97
2017-07-09T07:26:48.269Z,2.87
2017-07-09T07:29:16.407Z,2.80
2017-07-09T07:31:45.122Z,2.53
2017-07-09T07:34:13.173Z,2.63
2017-07-09T07:36:41.290Z,2.93
2017-07-09T07:39:09.553Z,3.37
2017-07-09T07:41:37.596Z,2.60
2017-07-09T07:44:06.735Z,2.80
2017-07-09T07:46:34.725Z,3.30
2017-07-09T07:49:02.767Z,3.40
2017-07-09T07:51:30.765Z,2.80
2017-07-09T07:53:58.732Z,3.33
2017-07-09T07:56:26.630Z,3.00
2017-07-09T07:58:54.698Z,2.73
2017-07-09T08:01:22.771Z,3.60
2017-07-09T08:03:50.645Z,3.80
2017-07-09T08:06:18.527Z,2.77
2017-07-09T08:08:46.468Z,2.80
2017-07-09T08:11:14.385Z,3.83
2017-07-09T08:13:42.267Z,3.70
2017-07-09T08:16:10.268Z,3.10
2017-07-09T08:18:38.110Z,3.57
2017-07-09T08:21:06.168Z,3.30
2017-07-09T08:23:34.943Z,2.73
2017-07-09T08:26:02.945Z,3.20
2017-07-09T08:28:31.084Z,2.63
2017-07-09T08:30:59.637Z,3.00
2017-07-09T08:33:27.733Z,3.30
2017-07-09T08:35:56.766Z,4.00
2017-07-09T08:38:24.642Z,3.00
2017-07-09T08:40:54.243Z,2.70
2017-07-09T08:43:24.153Z,3.90
2017-07-09T08:45:52.047Z,3.83
2017-07-09T08:48:20.241Z,3.10
2017-07-09T08:50:48.275Z,3.40
2017-07-09T08:53:17.079Z,3.70
2017-07-09T08:55:45.119Z,3.73
2017-07-09T08:58:13.909Z,4.13
2017-07-09T09:00:42.182Z,2.90
2017-07-09T09:03:14.310Z,2.70
2017-07-09T09:05:49.231Z,3.60
2017-07-09T09:08:23.296Z,2.90
2017-07-09T09:10:51.726Z,2.90
2017-07-09T09:13:21.182Z,2.90
2017-07-09T09:15:49.175Z,2.67
2017-07-09T09:18:17.147Z,2.63
2017-07-09T09:20:45.221Z,3.20
2017-07-09T09:23:16.775Z,2.63
2017-07-09T09:25:45.267Z,3.23
2017-07-09T09:28:13.488Z,2.87
2017-07-09T09:30:42.251Z,3.60
2017-07-09T09:33:11.385Z,3.97
2017-07-09T09:35:39.499Z,3.70
2017-07-09T09:38:07.512Z,3.17
2017-07-09T09:40:36.166Z,3.40
2017-07-09T09:43:04.723Z,3.83
2017-07-09T09:45:34.084Z,3.30
2017-07-09T09:48:02.097Z,3.13
2017-07-09T09:50:30.071Z,3.67
2017-07-09T09:52:58.471Z,3.53
2017-07-09T09:55:28.724Z,3.43
2017-07-09T09:57:56.918Z,3.10
2017-07-09T10:00:24.923Z,3.50
2017-07-09T10:02:52.830Z,4.00
2017-07-09T10:05:20.845Z,2.70
2017-07-09T10:07:48.748Z,3.37
2017-07-09T10:10:16.887Z,2.67
2017-07-09T10:12:44.919Z,2.87
2017-07-09T10:15:13.876Z,2.90
2017-07-09T10:17:42.661Z,3.30
2017-07-09T10:20:10.572Z,2.80
2017-07-09T10:22:38.552Z,4.20
2017-07-09T10:25:06.495Z,2.93
2017-07-09T10:27:34.485Z,2.30
2017-07-09T10:30:02.301Z,2.73
2017-07-09T10:32:30.216Z,3.00
2017-07-09T10:34:58.217Z,2.90
2017-07-09T10:37:26.955Z,2.60
2017-07-09T10:39:56.028Z,2.47
2017-07-09T10:42:23.851Z,2.50
2017-07-09T10:44:51.880Z,2.77
2017-07-09T10:47:19.844Z,3.40
2017-07-09T10:49:47.668Z,2.80
2017-07-09T10:52:16.631Z,3.30
2017-07-09T10:54:44.557Z,3.07
2017-07-09T10:57:12.379Z,2.87
2017-07-09T10:59:40.346Z,2.90
2017-07-09T11:02:08.150Z,3.00
2017-07-09T11:04:36.028Z,3.33
2017-07-09T11:07:04.155Z,2.83
2017-07-09T11:09:32.104Z,2.47
2017-07-09T11:12:00.026Z,3.17
2017-07-09T11:14:28.097Z,2.40
2017-07-09T11:16:56.004Z,3.10
2017-07-09T11:19:24.678Z,3.40
2017-07-09T11:21:52.554Z,3.00
2017-07-09T11:24:20.507Z,3.33
2017-07-09T11:26:48.629Z,2.90
2017-07-09T11:29:16.544Z,3.10
2017-07-09T11:31:44.572Z,3.50
2017-07-09T11:34:13.532Z,2.57
2017-07-09T11:36:42.835Z,3.00
2017-07-09T11:39:10.857Z,2.87
2017-07-09T11:41:38.747Z,2.53
2017-07-09T11:44:06.771Z,3.00
2017-07-09T11:46:34.594Z,2.80
2017-07-09T11:49:02.472Z,4.23
2017-07-09T11:51:30.548Z,3.40
2017-07-09T11:56:33.447Z,2.30
2017-07-09T11:59:01.407Z,3.63
2017-07-09T12:01:29.558Z,3.67
2017-07-09T12:03:57.550Z,3.40
2017-07-09T12:06:25.573Z,3.00
2017-07-09T12:08:53.799Z,3.53
2017-07-09T12:11:21.731Z,3.53
2017-07-09T12:13:49.815Z,3.43
2017-07-09T12:16:17.787Z,2.53
2017-07-09T12:18:45.791Z,2.60
2017-07-09T12:21:13.737Z,2.70
2017-07-09T12:23:43.538Z,2.90
2017-07-09T12:26:12.816Z,2.67
2017-07-09T12:28:40.961Z,2.37
2017-07-09T12:31:09.764Z,3.00
2017-07-09T12:33:38.183Z,3.30
2017-07-09T12:36:07.162Z,3.07
2017-07-09T12:38:35.240Z,3.30
2017-07-09T12:41:03.234Z,3.63
2017-07-09T12:43:31.317Z,2.87
2017-07-09T12:45:59.413Z,3.37
2017-07-09T12:48:27.695Z,3.20
2017-07-09T12:50:55.599Z,3.40
2017-07-09T12:53:24.375Z,3.70
2017-07-09T12:55:52.459Z,2.80
2017-07-09T12:58:20.389Z,3.10
2017-07-09T13:00:48.399Z,3.33
2017-07-09T13:03:16.395Z,3.50
2017-07-09T13:08:18.395Z,3.77
2017-07-09T13:10:46.392Z,3.80
2017-07-09T13:13:14.546Z,3.13
2017-07-09T13:15:44.435Z,2.73
2017-07-09T13:18:12.441Z,3.67
2017-07-09T13:20:40.303Z,3.80
2017-07-09T13:23:08.469Z,3.97
2017-07-09T13:25:36.428Z,3.10
2017-07-09T13:28:04.391Z,4.73
2017-07-09T13:30:32.402Z,3.30
2017-07-09T13:33:01.444Z,3.70
2017-07-09T13:35:29.332Z,3.63
2017-07-09T13:37:57.167Z,2.97
2017-07-09T13:40:25.222Z,3.03
2017-07-09T13:42:53.285Z,2.30
2017-07-09T13:45:21.669Z,3.40
2017-07-09T13:47:49.457Z,3.27
2017-07-09T13:50:18.741Z,3.10
2017-07-09T13:52:47.315Z,2.97
2017-07-09T13:55:15.280Z,2.70
2017-07-09T13:57:43.252Z,3.23
2017-07-09T14:00:11.214Z,3.20
2017-07-09T14:02:39.107Z,3.20
2017-07-09T14:05:07.024Z,3.30
2017-07-09T14:07:35.100Z,3.77
2017-07-09T14:10:03.652Z,4.10
2017-07-09T14:12:32.039Z,3.77
2017-07-09T14:14:59.953Z,3.23
2017-07-09T14:17:27.843Z,2.93
2017-07-09T14:19:56.401Z,2.70
2017-07-09T14:22:24.299Z,3.60
2017-07-09T14:24:52.463Z,3.07
2017-07-09T14:27:20.365Z,3.40
2017-07-09T14:29:48.268Z,3.37
2017-07-09T14:32:16.061Z,3.20
2017-07-09T14:34:44.009Z,3.60
2017-07-09T14:37:12.018Z,3.10
2017-07-09T14:39:39.862Z,3.80
2017-07-09T14:42:07.734Z,2.90
2017-07-09T14:44:35.735Z,3.23
2017-07-09T14:47:03.636Z,4.10
2017-07-09T14:49:31.629Z,3.13
2017-07-09T14:51:59.493Z,3.20
2017-07-09T14:54:27.442Z,4.10
2017-07-09T14:56:55.447Z,3.20
2017-07-09T14:59:24.224Z,3.30
2017-07-09T15:01:52.063Z,3.10
2017-07-09T15:04:20.091Z,3.20
2017-07-09T15:06:48.065Z,3.37
2017-07-09T15:09:16.691Z,3.17
2017-07-09T15:11:45.061Z,3.27
2017-07-09T15:14:13.028Z,3.37
2017-07-09T15:16:42.405Z,2.63
2017-07-09T15:19:11.337Z,2.87
2017-07-09T15:21:39.222Z,3.60
2017-07-09T15:24:07.264Z,3.67
2017-07-09T15:26:35.249Z,3.40
2017-07-09T15:29:03.242Z,3.10
2017-07-09T15:31:31.152Z,3.80
2017-07-09T15:33:59.187Z,3.43
2017-07-09T15:36:28.000Z,3.07
2017-07-09T15:38:56.873Z,3.63
2017-07-09T15:41:24.919Z,3.33
2017-07-09T15:43:52.771Z,3.47
2017-07-09T15:46:20.724Z,3.20
2017-07-09T15:48:48.988Z,2.83
2017-07-09T15:51:16.905Z,3.57
2017-07-09T15:53:44.882Z,3.30
2017-07-09T15:56:12.882Z,3.70
2017-07-09T15:58:40.844Z,3.70
2017-07-09T16:01:08.795Z,4.30
2017-07-09T16:03:36.806Z,3.33
2017-07-09T16:06:04.931Z,3.50
2017-07-09T16:08:33.098Z,4.10
2017-07-09T16:11:01.065Z,3.20
2017-07-09T16:13:29.296Z,3.20
2017-07-09T16:15:57.287Z,3.20
2017-07-09T16:18:25.126Z,3.87
2017-07-09T16:20:54.121Z,3.97
2017-07-09T16:23:22.993Z,4.47
2017-07-09T16:25:50.915Z,3.03
2017-07-09T16:28:18.877Z,3.00
2017-07-09T16:30:47.651Z,3.00
2017-07-09T16:33:15.676Z,4.17
2017-07-09T16:35:43.654Z,4.00
2017-07-09T16:38:12.153Z,3.53
2017-07-09T16:40:40.101Z,3.83
2017-07-09T16:43:09.974Z,3.20
2017-07-09T16:45:41.440Z,3.37
2017-07-09T16:48:12.229Z,3.30
2017-07-09T16:50:40.244Z,3.17
2017-07-09T16:53:08.974Z,3.80
2017-07-09T16:55:36.903Z,4.53
2017-07-09T16:58:05.668Z,3.33
2017-07-09T17:00:33.648Z,2.90
2017-07-09T17:03:01.834Z,3.70
2017-07-09T17:05:31.646Z,3.57
2017-07-09T17:08:00.903Z,3.60
2017-07-09T17:10:29.005Z,3.90
2017-07-09T17:12:57.022Z,3.67
2017-07-09T17:15:25.561Z,3.93
2017-07-09T17:17:54.981Z,4.50
2017-07-09T17:20:23.534Z,3.00
2017-07-09T17:22:51.539Z,4.07
2017-07-09T17:25:19.980Z,3.93
2017-07-09T17:27:47.794Z,3.70
2017-07-09T17:30:15.602Z,3.60
2017-07-09T17:32:44.032Z,4.17
2017-07-09T17:35:11.867Z,3.87
2017-07-09T17:37:41.000Z,3.60
2017-07-09T17:40:09.029Z,4.07
2017-07-09T17:42:38.204Z,3.27
2017-07-09T17:45:06.198Z,3.63
2017-07-09T17:47:34.408Z,4.23
2017-07-09T17:50:02.678Z,3.93
2017-07-09T17:52:30.887Z,4.37
2017-07-09T17:54:58.870Z,3.27
2017-07-09T17:57:26.923Z,3.10
2017-07-09T17:59:55.872Z,3.57
2017-07-09T18:02:25.382Z,4.07
2017-07-09T18:04:53.439Z,4.30
2017-07-09T18:07:21.409Z,3.97
2017-07-09T18:09:51.365Z,4.43
2017-07-09T18:12:21.037Z,4.00
2017-07-09T18:14:49.069Z,3.50
2017-07-09T18:17:17.833Z,3.03
2017-07-09T18:19:48.437Z,4.80
2017-07-09T18:22:18.225Z,3.60
2017-07-09T18:24:50.005Z,3.60
2017-07-09T18:27:19.764Z,3.30
2017-07-09T18:29:55.303Z,3.07
2017-07-09T18:32:25.914Z,3.80
2017-07-09T18:34:57.039Z,3.30
2017-07-09T18:37:29.627Z,3.60
2017-07-09T18:40:01.051Z,3.97
2017-07-09T18:42:30.933Z,3.40
2017-07-09T18:44:59.874Z,2.90
2017-07-09T18:47:31.142Z,4.57
2017-07-09T18:50:02.032Z,2.83
2017-07-09T18:52:31.728Z,3.63
2017-07-09T18:55:01.186Z,2.80
2017-07-09T18:57:33.407Z,2.90
2017-07-09T19:00:03.142Z,3.40
2017-07-09T19:02:32.118Z,2.80
2017-07-09T19:05:00.433Z,2.90
2017-07-09T19:10:13.246Z,4.00
2017-07-09T19:12:42.889Z,2.70
2017-07-09T19:15:11.990Z,3.40
2017-07-09T19:17:41.739Z,3.40
2017-07-09T19:20:09.788Z,2.43
2017-07-09T19:22:39.149Z,3.43
2017-07-09T19:25:10.007Z,2.63
2017-07-09T19:27:37.738Z,3.20
2017-07-09T19:30:06.199Z,2.50
2017-07-09T19:32:35.875Z,2.80
2017-07-09T19:35:06.570Z,3.27
2017-07-09T19:37:35.139Z,2.90
2017-07-09T19:40:03.702Z,2.80
2017-07-09T19:42:31.761Z,2.40
2017-07-09T19:44:59.863Z,3.10
2017-07-09T19:47:28.339Z,2.50
2017-07-09T19:49:57.253Z,2.33
2017-07-09T19:52:25.194Z,1.90
2017-07-09T19:54:53.236Z,2.83
2017-07-09T19:57:20.979Z,2.23
2017-07-09T19:59:49.065Z,2.20
2017-07-09T20:02:16.838Z,2.70
2017-07-09T20:04:44.767Z,2.77
2017-07-09T20:07:12.569Z,2.33
2017-07-09T20:09:40.432Z,1.83
2017-07-09T20:12:08.347Z,2.47
2017-07-09T20:14:36.214Z,2.40
2017-07-09T20:17:04.000Z,2.70
2017-07-09T20:19:31.782Z,2.30
2017-07-09T20:21:59.591Z,2.70
2017-07-09T20:24:27.337Z,2.63
2017-07-09T20:26:55.087Z,2.40
2017-07-09T20:29:22.811Z,2.70
2017-07-09T20:31:50.743Z,2.80
2017-07-09T20:34:18.505Z,2.17
2017-07-09T20:36:46.237Z,2.50
2017-07-09T20:39:14.046Z,2.77
2017-07-09T20:41:41.997Z,2.50
2017-07-09T20:44:10.309Z,3.20
2017-07-09T20:46:38.148Z,2.53
2017-07-09T20:49:05.860Z,2.90
2017-07-09T20:51:33.694Z,2.60
2017-07-09T20:54:01.488Z,1.80
2017-07-09T20:56:30.375Z,2.13
2017-07-09T20:58:58.136Z,1.97
2017-07-09T21:01:26.017Z,2.77
2017-07-09T21:03:53.833Z,2.70
2017-07-09T21:06:21.545Z,2.40
2017-07-09T21:08:49.329Z,2.67
2017-07-09T21:11:17.126Z,3.17
2017-07-09T21:13:44.865Z,2.50
2017-07-09T21:16:12.675Z,2.30
2017-07-09T21:18:40.431Z,2.90
2017-07-09T21:21:08.136Z,2.70
2017-07-09T21:23:35.973Z,2.70
2017-07-09T21:26:03.777Z,3.13
2017-07-09T21:28:31.572Z,3.40
2017-07-09T21:30:59.332Z,2.83
2017-07-09T21:33:27.055Z,2.50
2017-07-09T21:35:54.800Z,2.40
2017-07-09T21:38:22.625Z,2.57
2017-07-09T21:40:50.328Z,2.77
2017-07-09T21:43:18.090Z,2.70
2017-07-09T21:45:45.914Z,2.63
2017-07-09T21:48:14.143Z,3.03
2017-07-09T21:50:42.615Z,3.00
2017-07-09T21:53:10.381Z,4.00
2017-07-09T21:55:38.196Z,2.77
2017-07-09T21:58:05.948Z,3.57
2017-07-09T22:00:33.701Z,3.63
2017-07-09T22:03:01.434Z,3.73
2017-07-09T22:05:29.190Z,3.03
2017-07-09T22:07:56.897Z,3.00
2017-07-09T22:10:24.640Z,2.60
2017-07-09T22:12:53.442Z,3.20
2017-07-09T22:15:21.198Z,3.43
2017-07-09T22:17:48.901Z,2.77
2017-07-09T22:20:16.661Z,2.50
2017-07-09T22:22:44.443Z,2.60
2017-07-09T22:25:12.246Z,2.77
2017-07-09T22:27:39.959Z,2.80
2017-07-09T22:30:07.718Z,2.40
2017-07-09T22:32:35.473Z,2.17
2017-07-09T22:35:03.266Z,3.20
2017-07-09T22:37:30.972Z,2.30
2017-07-09T22:39:58.730Z,3.20
2017-07-09T22:42:26.510Z,2.23
2017-07-09T22:44:54.249Z,2.60
2017-07-09T22:47:22.009Z,2.37
2017-07-09T22:49:49.700Z,2.57
2017-07-09T22:52:17.501Z,3.57
2017-07-09T22:54:45.566Z,2.30
2017-07-09T22:57:13.273Z,2.70
2017-07-09T22:59:40.984Z,2.20
2017-07-09T23:02:09.192Z,2.90
2017-07-09T23:04:36.908Z,2.13
2017-07-09T23:07:04.590Z,2.97
2017-07-09T23:09:32.371Z,2.63
2017-07-09T23:12:00.263Z,2.20
2017-07-09T23:14:27.973Z,2.97
2017-07-09T23:16:55.658Z,2.50
2017-07-09T23:19:23.447Z,2.97
2017-07-09T23:21:51.215Z,2.70
2017-07-09T23:24:18.958Z,2.73
2017-07-09T23:26:46.809Z,2.60
2017-07-09T23:29:14.688Z,2.77
2017-07-09T23:31:42.467Z,2.37
2017-07-09T23:34:10.253Z,2.43
2017-07-09T23:36:38.095Z,2.97
2017-07-09T23:39:05.790Z,2.47
2017-07-09T23:41:33.519Z,2.60
2017-07-09T23:44:01.271Z,2.20
2017-07-09T23:46:28.981Z,3.90
2017-07-09T23:48:56.806Z,2.70
2017-07-09T23:51:24.514Z,2.07
2017-07-09T23:53:52.219Z,2.37
2017-07-09T23:56:20.054Z,2.97
2017-07-09T23:58:47.768Z,2.20
